Time;durP1;ratioP1;P1;durP2;ratioP2;P2;SDS_P1;SDS_P2;PMS_P1;PMS_P2;Temp;Humidity;BMP_temperature;BMP_pressure;BME280_temperature;BME280_humidity;BME280_pressure;Samples;Min_cycle;Max_cycle;Signal;HPM_P1;HPM_P2
2022/09/24 00:02:26;;;;;;;10.10;6.87;;;10.70;99.90;;;;;;5054360;28;20237;-73
2022/09/24 00:04:52;;;;;;;11.97;8.30;;;10.70;99.90;;;;;;5054370;28;20213;-74
2022/09/24 00:07:19;;;;;;;11.93;7.87;;;10.70;99.90;;;;;;5054225;28;20210;-74
2022/09/24 00:09:47;;;;;;;12.07;7.47;;;10.60;99.90;;;;;;5053797;28;20667;-74
2022/09/24 00:12:16;;;;;;;15.27;8.10;;;10.60;99.90;;;;;;5052564;28;20325;-74
2022/09/24 00:14:42;;;;;;;13.57;7.70;;;10.60;99.90;;;;;;5054180;28;20218;-74
2022/09/24 00:17:09;;;;;;;13.07;9.13;;;10.60;99.90;;;;;;5053005;28;20281;-75
2022/09/24 00:19:36;;;;;;;11.67;7.50;;;10.50;99.90;;;;;;5051893;28;20212;-74
2022/09/24 00:22:03;;;;;;;12.47;8.13;;;10.50;99.90;;;;;;5050348;28;20238;-74
2022/09/24 00:27:15;;;;;;;11.43;8.30;;;10.50;99.90;;;;;;5056199;28;20583;-75
2022/09/24 00:29:42;;;;;;;13.17;8.57;;;10.60;99.90;;;;;;5051886;28;20577;-74
2022/09/24 00:32:09;;;;;;;13.10;8.23;;;10.50;99.90;;;;;;5053852;28;20674;-73
2022/09/24 00:34:36;;;;;;;13.77;8.40;;;10.50;99.90;;;;;;5053311;28;20236;-73
2022/09/24 00:37:02;;;;;;;14.73;7.93;;;10.50;99.90;;;;;;5054119;28;20217;-74
2022/09/24 00:39:29;;;;;;;11.33;8.23;;;10.50;99.90;;;;;;5053416;28;20213;-73
2022/09/24 00:41:56;;;;;;;12.50;8.57;;;10.40;99.90;;;;;;5054739;28;20671;-75
2022/09/24 00:44:52;;;;;;;13.77;8.97;;;10.40;99.90;;;;;;5053990;28;20566;-74
2022/09/24 00:47:33;;;;;;;13.40;8.47;;;10.40;99.90;;;;;;5052762;28;20206;-74
2022/09/24 00:50:09;;;;;;;12.30;8.40;;;10.30;99.90;;;;;;5054967;28;20206;-73
2022/09/24 00:52:40;;;;;;;13.83;8.70;;;10.40;99.90;;;;;;5054324;28;20205;-70
2022/09/24 00:55:09;;;;;;;11.83;8.83;;;10.30;99.90;;;;;;5055577;28;20213;-71
2022/09/24 00:57:38;;;;;;;11.73;8.47;;;10.30;99.90;;;;;;5054144;28;20218;-71
2022/09/24 01:00:08;;;;;;;11.93;8.43;;;10.30;99.90;;;;;;5052875;28;20238;-73
2022/09/24 01:02:37;;;;;;;15.93;9.30;;;10.30;99.90;;;;;;5054306;28;20206;-72
2022/09/24 01:05:04;;;;;;;13.93;10.53;;;10.20;99.90;;;;;;5040859;28;20206;-72
2022/09/24 01:07:31;;;;;;;14.87;10.67;;;10.20;99.90;;;;;;5052478;28;20598;-72
2022/09/24 01:09:58;;;;;;;13.60;9.37;;;10.20;99.90;;;;;;5052893;28;20205;-72
2022/09/24 01:12:35;;;;;;;14.47;9.23;;;10.20;99.90;;;;;;5053307;28;20218;-72
2022/09/24 01:15:15;;;;;;;15.00;10.57;;;10.20;99.90;;;;;;5053387;28;20241;-72
2022/09/24 01:17:51;;;;;;;13.03;10.30;;;10.20;99.90;;;;;;5051945;28;20733;-71
2022/09/24 01:20:56;;;;;;;17.33;10.90;;;10.20;99.90;;;;;;5053070;28;20209;-72
2022/09/24 01:23:44;;;;;;;16.90;11.27;;;10.20;99.90;;;;;;5051548;28;20732;-72
2022/09/24 01:26:27;;;;;;;17.23;11.47;;;10.20;99.90;;;;;;5041501;28;20234;-73
2022/09/24 01:29:05;;;;;;;14.80;10.80;;;10.20;99.90;;;;;;5052967;28;20202;-73
2022/09/24 01:31:39;;;;;;;15.00;10.43;;;10.20;99.90;;;;;;5053480;28;20263;-72
2022/09/24 01:34:08;;;;;;;18.13;11.53;;;10.20;99.90;;;;;;5052268;28;20206;-71
2022/09/24 01:36:36;;;;;;;15.63;10.30;;;10.20;99.90;;;;;;5053941;28;20205;-72
2022/09/24 01:39:06;;;;;;;21.80;12.33;;;10.20;99.90;;;;;;5052668;28;20309;-72
2022/09/24 01:41:35;;;;;;;16.07;10.37;;;10.10;99.90;;;;;;5053811;28;20824;-71
2022/09/24 01:44:06;;;;;;;13.77;10.27;;;10.10;99.90;;;;;;5053448;28;20669;-71
2022/09/24 01:46:37;;;;;;;15.80;10.27;;;10.10;99.90;;;;;;5053526;28;20245;-73
2022/09/24 01:49:05;;;;;;;13.63;10.30;;;10.10;99.90;;;;;;5058195;28;20216;-72
2022/09/24 01:51:38;;;;;;;16.83;10.83;;;10.00;99.90;;;;;;5048501;28;20296;-71
2022/09/24 01:54:10;;;;;;;14.97;10.90;;;10.00;99.90;;;;;;5051773;28;20206;-72
2022/09/24 01:56:41;;;;;;;15.73;10.70;;;10.00;99.90;;;;;;5048300;28;20678;-73
2022/09/24 01:59:13;;;;;;;16.47;11.17;;;10.00;99.90;;;;;;5052459;28;20327;-72
2022/09/24 02:01:48;;;;;;;14.73;10.47;;;10.00;99.90;;;;;;5052637;28;20209;-72
2022/09/24 02:04:19;;;;;;;14.67;10.83;;;10.00;99.90;;;;;;5053415;28;20636;-72
2022/09/24 02:06:51;;;;;;;15.27;9.87;;;10.00;99.90;;;;;;5045926;28;20229;-72
2022/09/24 02:09:32;;;;;;;15.77;11.20;;;9.90;99.90;;;;;;5053615;28;20677;-73
2022/09/24 02:12:05;;;;;;;18.27;10.37;;;10.00;99.90;;;;;;5040047;28;20474;-73
2022/09/24 02:14:37;;;;;;;14.47;10.03;;;9.90;99.90;;;;;;5058565;28;20208;-72
2022/09/24 02:17:07;;;;;;;14.93;10.70;;;10.00;99.90;;;;;;5054097;28;20206;-73
2022/09/24 02:19:36;;;;;;;15.40;10.73;;;10.00;99.90;;;;;;5052804;28;20590;-72
2022/09/24 02:22:06;;;;;;;14.23;9.80;;;9.90;99.90;;;;;;5053020;28;20234;-73
2022/09/24 02:24:40;;;;;;;16.43;10.30;;;9.90;99.90;;;;;;5048137;28;20209;-73
2022/09/24 02:27:07;;;;;;;14.67;10.20;;;9.90;99.90;;;;;;5054012;28;20672;-72
2022/09/24 02:29:34;;;;;;;14.83;10.77;;;9.90;99.90;;;;;;5052480;28;20202;-72
2022/09/24 02:32:04;;;;;;;16.07;10.67;;;9.90;99.90;;;;;;5052819;28;20205;-72
2022/09/24 02:34:38;;;;;;;15.23;10.97;;;9.90;99.90;;;;;;5053183;28;20199;-72
2022/09/24 02:37:07;;;;;;;15.20;9.60;;;9.90;99.90;;;;;;5050191;28;20268;-72
2022/09/24 02:39:35;;;;;;;15.90;10.50;;;9.80;99.90;;;;;;5048097;28;20210;-72
2022/09/24 02:42:04;;;;;;;14.97;11.53;;;9.80;99.90;;;;;;5050712;28;20309;-72
2022/09/24 02:44:31;;;;;;;16.73;11.27;;;9.80;99.90;;;;;;5051646;28;20206;-73
2022/09/24 02:46:58;;;;;;;18.90;12.20;;;9.80;99.90;;;;;;5055353;28;20225;-73
2022/09/24 02:49:25;;;;;;;18.70;12.67;;;9.70;99.90;;;;;;5053089;28;20285;-73
2022/09/24 02:51:53;;;;;;;20.20;12.47;;;9.70;99.90;;;;;;5052306;28;20732;-72
2022/09/24 02:54:20;;;;;;;19.47;12.50;;;9.70;99.90;;;;;;5051546;28;20670;-73
2022/09/24 02:56:50;;;;;;;21.37;12.23;;;9.70;99.90;;;;;;5052612;28;20205;-73
2022/09/24 02:59:18;;;;;;;22.03;12.77;;;9.60;99.90;;;;;;5050510;28;20206;-72
2022/09/24 03:01:45;;;;;;;21.40;12.17;;;9.60;99.90;;;;;;5052903;28;20232;-73
2022/09/24 03:04:11;;;;;;;18.57;13.13;;;9.60;99.90;;;;;;5051113;28;20213;-73
2022/09/24 03:06:38;;;;;;;19.57;12.90;;;9.50;99.90;;;;;;5051237;28;20493;-74
2022/09/24 03:09:07;;;;;;;20.40;13.50;;;9.50;99.90;;;;;;5051452;28;20217;-73
2022/09/24 03:11:34;;;;;;;21.80;14.07;;;9.50;99.90;;;;;;5051935;28;20214;-72
2022/09/24 03:14:01;;;;;;;23.93;14.30;;;9.50;99.90;;;;;;5049969;28;20210;-73
2022/09/24 03:16:28;;;;;;;22.30;14.37;;;9.50;99.90;;;;;;5048922;28;20206;-73
2022/09/24 03:18:55;;;;;;;17.67;12.77;;;9.50;99.90;;;;;;5051117;28;20217;-72
2022/09/24 03:21:22;;;;;;;18.60;13.10;;;9.50;99.90;;;;;;5051192;28;20726;-73
2022/09/24 03:23:49;;;;;;;18.10;12.90;;;9.40;99.90;;;;;;5049737;28;20261;-73
2022/09/24 03:26:17;;;;;;;19.77;12.73;;;9.50;99.90;;;;;;5048200;28;20580;-72
2022/09/24 03:28:46;;;;;;;20.97;13.30;;;9.50;99.90;;;;;;5051623;28;20214;-72
2022/09/24 03:31:13;;;;;;;21.80;12.33;;;9.40;99.90;;;;;;5054271;28;20643;-72
2022/09/24 03:33:41;;;;;;;18.10;12.87;;;9.40;99.90;;;;;;5053071;28;20198;-72
2022/09/24 03:36:10;;;;;;;17.70;12.77;;;9.40;99.90;;;;;;5054714;28;20202;-71
2022/09/24 03:38:39;;;;;;;21.93;13.37;;;9.50;99.90;;;;;;5053992;28;20245;-72
2022/09/24 03:41:07;;;;;;;15.40;12.20;;;9.40;99.90;;;;;;5054535;28;20210;-73
2022/09/24 03:43:35;;;;;;;20.67;12.40;;;9.50;99.90;;;;;;5054882;28;20210;-73
2022/09/24 03:46:05;;;;;;;19.33;13.20;;;9.40;99.90;;;;;;5053640;28;20218;-73
2022/09/24 03:48:33;;;;;;;18.77;12.63;;;9.50;99.90;;;;;;5061853;28;20220;-73
2022/09/24 03:51:03;;;;;;;14.87;12.10;;;9.50;99.90;;;;;;5054151;28;20216;-72
2022/09/24 03:53:30;;;;;;;20.17;12.23;;;9.40;99.90;;;;;;5053652;28;20208;-73
2022/09/24 03:55:58;;;;;;;17.80;12.93;;;9.50;99.90;;;;;;5054020;28;20205;-72
2022/09/24 03:58:25;;;;;;;18.33;12.60;;;9.50;99.90;;;;;;5055009;28;20506;-73
2022/09/24 04:00:54;;;;;;;18.47;12.60;;;9.50;99.90;;;;;;5053506;28;20221;-72
2022/09/24 04:03:21;;;;;;;16.90;12.60;;;9.50;99.90;;;;;;5053357;28;20699;-73
2022/09/24 04:05:49;;;;;;;20.40;12.17;;;9.50;99.90;;;;;;5052877;28;20210;-72
2022/09/24 04:08:16;;;;;;;19.63;12.07;;;9.50;99.90;;;;;;5054950;28;20213;-73
2022/09/24 04:10:45;;;;;;;20.27;12.60;;;9.50;99.90;;;;;;5053718;28;20584;-73
2022/09/24 04:13:12;;;;;;;18.07;13.27;;;9.50;99.90;;;;;;5052992;28;20636;-73
2022/09/24 04:15:39;;;;;;;20.33;12.77;;;9.50;99.90;;;;;;5051672;28;20234;-72
2022/09/24 04:18:07;;;;;;;19.47;12.97;;;9.40;99.90;;;;;;5053584;28;20213;-73
2022/09/24 04:20:35;;;;;;;23.40;12.57;;;9.50;99.90;;;;;;5052879;28;20214;-73
2022/09/24 04:23:02;;;;;;;16.20;11.90;;;9.50;99.90;;;;;;5052611;28;20664;-72
2022/09/24 04:25:31;;;;;;;17.77;12.83;;;9.50;99.90;;;;;;5051148;28;20210;-72
2022/09/24 04:27:59;;;;;;;16.57;11.20;;;9.50;99.90;;;;;;5054499;28;20604;-72
2022/09/24 04:30:26;;;;;;;17.83;11.70;;;9.50;99.90;;;;;;5054103;28;20213;-73
2022/09/24 04:32:53;;;;;;;16.40;11.57;;;9.50;99.90;;;;;;5054274;28;20218;-72
2022/09/24 04:35:23;;;;;;;18.63;12.87;;;9.50;99.90;;;;;;5053565;28;20209;-73
2022/09/24 04:37:50;;;;;;;18.60;12.93;;;9.50;99.90;;;;;;5037910;28;20202;-69
2022/09/24 04:40:17;;;;;;;20.97;13.03;;;9.40;99.90;;;;;;5050456;28;20206;-69
2022/09/24 04:42:45;;;;;;;18.43;12.60;;;9.40;99.90;;;;;;5051766;28;20553;-67
2022/09/24 04:45:12;;;;;;;19.13;12.80;;;9.40;99.90;;;;;;5051826;28;20234;-69
2022/09/24 04:47:40;;;;;;;19.17;13.87;;;9.40;99.90;;;;;;5059132;28;20221;-68
2022/09/24 04:50:08;;;;;;;17.57;12.07;;;9.30;99.90;;;;;;5052772;28;20213;-70
2022/09/24 04:52:39;;;;;;;21.40;14.00;;;9.40;99.90;;;;;;5055196;28;20209;-72
2022/09/24 04:55:07;;;;;;;20.30;13.57;;;9.30;99.90;;;;;;5063491;28;20663;-73
2022/09/24 04:57:34;;;;;;;21.93;13.33;;;9.30;99.90;;;;;;5047226;28;20209;-71
2022/09/24 05:00:02;;;;;;;23.50;13.80;;;9.40;99.90;;;;;;5051853;28;20212;-72
2022/09/24 05:02:28;;;;;;;20.50;13.23;;;9.40;99.90;;;;;;5054317;28;20209;-72
2022/09/24 05:04:55;;;;;;;23.17;13.73;;;9.50;99.90;;;;;;5044350;28;20206;-72
2022/09/24 05:07:22;;;;;;;24.20;13.90;;;9.50;99.90;;;;;;5053718;28;20226;-71
2022/09/24 05:09:50;;;;;;;20.53;13.50;;;9.50;99.90;;;;;;5053649;28;20276;-72
2022/09/24 05:12:17;;;;;;;22.33;13.93;;;9.50;99.90;;;;;;5051014;28;20206;-73
2022/09/24 05:14:44;;;;;;;22.57;14.23;;;9.50;99.90;;;;;;5051972;28;20259;-73
2022/09/24 05:17:11;;;;;;;18.97;13.07;;;9.50;99.90;;;;;;5051927;28;20216;-73
2022/09/24 05:19:38;;;;;;;17.50;13.87;;;9.50;99.90;;;;;;5051326;28;20212;-73
2022/09/24 05:22:05;;;;;;;19.57;13.60;;;9.60;99.90;;;;;;5046256;28;20238;-73
2022/09/24 05:24:31;;;;;;;22.00;13.63;;;9.60;99.90;;;;;;5053096;28;20209;-73
2022/09/24 05:27:11;;;;;;;19.53;13.37;;;9.60;99.90;;;;;;5052618;28;20230;-73
2022/09/24 05:29:39;;;;;;;21.40;13.37;;;9.60;99.90;;;;;;5051666;28;20202;-73
2022/09/24 05:32:07;;;;;;;26.63;13.80;;;9.70;99.90;;;;;;5044382;28;20213;-72
2022/09/24 05:34:34;;;;;;;18.77;12.87;;;9.70;99.90;;;;;;5052304;28;20206;-73
2022/09/24 05:37:01;;;;;;;19.50;14.20;;;9.80;99.90;;;;;;5049382;28;20826;-73
2022/09/24 05:39:29;;;;;;;18.37;13.03;;;9.80;99.90;;;;;;5050549;28;20202;-71
2022/09/24 05:41:56;;;;;;;21.53;13.80;;;9.90;99.90;;;;;;5052425;28;20206;-74
2022/09/24 05:44:24;;;;;;;20.03;13.63;;;10.00;99.90;;;;;;5052613;28;20206;-75
2022/09/24 05:46:51;;;;;;;19.00;11.77;;;10.00;99.90;;;;;;5056830;28;20236;-73
2022/09/24 05:49:18;;;;;;;16.87;12.80;;;10.10;99.90;;;;;;5052193;28;20218;-74
2022/09/24 05:51:47;;;;;;;20.47;12.83;;;10.10;99.90;;;;;;5049528;28;20214;-74
2022/09/24 05:54:15;;;;;;;18.00;12.40;;;10.20;99.90;;;;;;5051677;28;20218;-68
2022/09/24 05:56:41;;;;;;;16.07;11.70;;;10.20;99.90;;;;;;5045230;28;20213;-69
2022/09/24 05:59:08;;;;;;;16.37;11.90;;;10.30;99.90;;;;;;5051620;28;20528;-69
2022/09/24 06:01:36;;;;;;;20.43;11.57;;;10.30;99.90;;;;;;5050650;28;20213;-68
2022/09/24 06:04:03;;;;;;;16.50;10.73;;;10.40;99.90;;;;;;5051215;28;20217;-69
2022/09/24 06:06:30;;;;;;;17.00;10.60;;;10.60;99.90;;;;;;5048589;28;20630;-68
2022/09/24 06:08:57;;;;;;;17.40;10.70;;;10.70;99.90;;;;;;5050030;28;20698;-69
2022/09/24 06:11:24;;;;;;;13.90;10.63;;;10.80;99.90;;;;;;5052297;28;20679;-69
2022/09/24 06:13:51;;;;;;;17.27;11.20;;;10.90;99.90;;;;;;5052205;28;20308;-68
2022/09/24 06:16:18;;;;;;;14.83;10.37;;;11.00;99.90;;;;;;5049560;28;20206;-70
2022/09/24 06:18:46;;;;;;;14.87;11.00;;;11.00;99.90;;;;;;5051916;28;20210;-70
2022/09/24 06:21:16;;;;;;;16.67;10.33;;;11.00;99.90;;;;;;5049216;28;20206;-68
2022/09/24 06:23:44;;;;;;;12.40;9.33;;;11.10;99.90;;;;;;5045454;28;20321;-69
2022/09/24 06:26:12;;;;;;;15.93;10.10;;;11.20;99.90;;;;;;5051732;28;20216;-69
2022/09/24 06:28:39;;;;;;;10.47;9.10;;;11.20;99.90;;;;;;5050897;28;20226;-69
2022/09/24 06:31:08;;;;;;;13.57;9.03;;;11.40;99.90;;;;;;5050397;28;20575;-69
2022/09/24 06:33:34;;;;;;;14.67;9.20;;;11.50;99.90;;;;;;5052790;28;20260;-68
2022/09/24 06:36:04;;;;;;;13.60;8.93;;;11.50;99.90;;;;;;5051687;28;20209;-68
2022/09/24 06:38:31;;;;;;;12.57;9.83;;;11.70;99.90;;;;;;5052660;28;20206;-68
2022/09/24 06:41:00;;;;;;;12.50;8.73;;;11.80;99.90;;;;;;5050520;28;20206;-69
2022/09/24 06:43:27;;;;;;;10.53;7.70;;;11.90;99.90;;;;;;5048416;28;20214;-69
2022/09/24 06:45:56;;;;;;;10.73;7.73;;;12.00;99.90;;;;;;5049322;28;20212;-68
2022/09/24 06:48:23;;;;;;;9.87;7.90;;;12.10;99.90;;;;;;5058227;28;20580;-69
2022/09/24 06:50:50;;;;;;;12.93;7.93;;;12.10;99.90;;;;;;5045484;28;20222;-68
2022/09/24 06:53:18;;;;;;;9.83;7.23;;;12.20;99.90;;;;;;5041059;28;20228;-69
2022/09/24 06:55:45;;;;;;;9.57;6.33;;;12.30;99.90;;;;;;5048767;28;20221;-71
2022/09/24 06:58:14;;;;;;;9.50;5.90;;;12.40;99.90;;;;;;5051252;28;20194;-70
2022/09/24 07:00:41;;;;;;;10.03;6.33;;;12.50;99.90;;;;;;5051580;28;20279;-70
2022/09/24 07:03:14;;;;;;;10.87;6.10;;;12.60;99.90;;;;;;5051731;28;20541;-70
2022/09/24 07:05:41;;;;;;;8.70;5.73;;;12.80;99.90;;;;;;5054482;28;20206;-71
2022/09/24 07:08:08;;;;;;;6.90;4.93;;;12.80;99.90;;;;;;5055982;28;20678;-70
2022/09/24 07:10:36;;;;;;;7.63;5.40;;;12.90;99.90;;;;;;5056410;28;20753;-70
2022/09/24 07:13:03;;;;;;;7.27;5.43;;;13.00;99.90;;;;;;5055238;28;20217;-70
2022/09/24 07:15:30;;;;;;;6.27;4.60;;;13.10;99.90;;;;;;5054172;28;20216;-70
2022/09/24 07:17:57;;;;;;;6.43;4.13;;;13.30;99.90;;;;;;5060273;28;20202;-69
2022/09/24 07:20:26;;;;;;;5.70;4.17;;;13.40;99.90;;;;;;5052617;28;20198;-68
2022/09/24 07:22:53;;;;;;;6.80;4.80;;;13.60;99.90;;;;;;5054615;28;20307;-71
2022/09/24 07:25:20;;;;;;;6.40;4.80;;;13.70;99.90;;;;;;5049464;28;20206;-71
2022/09/24 07:27:48;;;;;;;7.03;5.13;;;14.00;99.90;;;;;;5053494;28;20230;-69
2022/09/24 07:30:15;;;;;;;8.70;4.80;;;14.20;99.90;;;;;;5049430;28;20209;-69
2022/09/24 07:32:42;;;;;;;4.20;3.47;;;14.40;99.90;;;;;;5047438;28;20224;-72
2022/09/24 07:35:09;;;;;;;6.03;3.50;;;14.60;99.90;;;;;;5050080;28;20655;-71
2022/09/24 07:37:36;;;;;;;4.00;3.17;;;14.60;99.90;;;;;;5051717;28;22257;-71
2022/09/24 07:40:03;;;;;;;3.67;3.27;;;14.90;99.90;;;;;;5060794;28;20221;-71
2022/09/24 07:42:30;;;;;;;4.67;3.57;;;15.00;99.90;;;;;;5049566;28;20206;-71
2022/09/24 07:44:59;;;;;;;6.23;4.17;;;15.10;99.90;;;;;;5049093;28;20214;-70
2022/09/24 07:47:26;;;;;;;8.07;3.93;;;15.20;99.90;;;;;;5050374;28;20751;-70
2022/09/24 07:49:53;;;;;;;7.40;4.40;;;15.40;99.90;;;;;;5049772;28;20667;-70
2022/09/24 07:52:20;;;;;;;5.13;4.43;;;15.50;99.90;;;;;;5052808;28;20205;-70
2022/09/24 07:54:46;;;;;;;6.30;4.80;;;15.90;99.90;;;;;;5055989;28;20213;-71
2022/09/24 07:57:13;;;;;;;8.17;5.17;;;16.00;99.90;;;;;;5052227;28;20213;-71
2022/09/24 07:59:43;;;;;;;9.80;6.53;;;16.10;99.90;;;;;;5052130;28;20225;-71
2022/09/24 08:02:16;;;;;;;10.03;5.90;;;16.20;99.90;;;;;;5057834;28;20262;-72
2022/09/24 08:04:43;;;;;;;7.50;5.87;;;16.10;99.80;;;;;;5041082;28;20570;-71
2022/09/24 08:07:11;;;;;;;7.23;5.13;;;16.20;99.90;;;;;;5040267;28;20206;-71
2022/09/24 08:09:38;;;;;;;8.00;5.53;;;16.20;99.80;;;;;;5043950;28;20573;-72
2022/09/24 08:12:05;;;;;;;9.20;6.17;;;16.20;99.70;;;;;;5049626;28;20213;-73
2022/09/24 08:14:32;;;;;;;9.43;5.90;;;16.30;99.40;;;;;;5049770;28;20213;-72
2022/09/24 08:16:59;;;;;;;6.70;5.63;;;16.30;99.00;;;;;;5041713;28;20263;-72
2022/09/24 08:19:29;;;;;;;4.80;4.23;;;16.40;98.60;;;;;;5049382;28;20202;-72
2022/09/24 08:21:57;;;;;;;5.30;4.10;;;16.50;97.90;;;;;;5039398;28;20691;-72
2022/09/24 08:24:24;;;;;;;6.63;3.17;;;16.70;97.10;;;;;;5039138;28;20217;-72
2022/09/24 08:26:50;;;;;;;5.80;3.73;;;16.80;96.40;;;;;;5047367;28;20545;-73
2022/09/24 08:29:17;;;;;;;5.40;3.87;;;16.90;95.30;;;;;;5053291;28;20225;-72
2022/09/24 08:31:44;;;;;;;8.10;3.47;;;17.00;94.90;;;;;;5053260;28;20201;-73
2022/09/24 08:34:11;;;;;;;4.47;2.95;;;17.20;94.40;;;;;;5054352;28;20206;-73
2022/09/24 08:36:39;;;;;;;4.43;3.40;;;17.30;93.90;;;;;;5055069;28;20216;-71
2022/09/24 08:39:07;;;;;;;4.72;3.65;;;17.60;93.40;;;;;;5055643;28;20205;-71
2022/09/24 08:41:54;;;;;;;4.28;2.88;;;17.80;92.40;;;;;;5053265;28;20217;-72
2022/09/24 08:47:24;;;;;;;4.13;2.40;;;17.90;91.40;;;;;;5048106;28;20687;-69
2022/09/24 08:50:03;;;;;;;2.80;2.50;;;18.30;90.10;;;;;;5047089;28;20513;-66
2022/09/24 08:52:41;;;;;;;2.45;2.25;;;18.60;86.70;;;;;;5047083;28;20197;-68
2022/09/24 08:55:14;;;;;;;2.90;2.20;;;18.90;84.60;;;;;;5050573;28;20205;-69
2022/09/24 08:57:48;;;;;;;2.65;2.15;;;19.20;84.50;;;;;;5051419;28;20631;-68
2022/09/24 09:00:16;;;;;;;6.22;4.75;;;19.60;83.20;;;;;;5052026;28;20213;-69
2022/09/24 09:02:51;;;;;;;2.70;2.50;;;20.10;81.60;;;;;;5051590;28;20947;-68
2022/09/24 09:05:27;;;;;;;3.17;2.35;;;20.60;76.70;;;;;;5046468;28;20943;-68
2022/09/24 09:08:02;;;;;;;2.33;2.13;;;21.30;74.00;;;;;;5046324;28;20713;-69
2022/09/24 09:10:33;;;;;;;3.78;3.25;;;22.90;68.50;;;;;;5039666;28;20201;-67
2022/09/24 09:13:06;;;;;;;4.95;2.40;;;25.10;62.20;;;;;;5045988;28;20217;-66
2022/09/24 09:15:38;;;;;;;2.95;2.40;;;27.60;55.60;;;;;;5044906;28;20206;-67
2022/09/24 09:18:14;;;;;;;2.63;1.73;;;30.00;47.80;;;;;;5049848;28;20228;-66
2022/09/24 09:20:44;;;;;;;1.90;1.60;;;31.80;43.50;;;;;;5049671;28;20197;-66
2022/09/24 09:23:20;;;;;;;2.10;1.23;;;33.50;39.80;;;;;;5049414;28;20261;-65
2022/09/24 09:25:52;;;;;;;2.10;1.77;;;35.50;36.20;;;;;;5047196;28;20849;-64
2022/09/24 09:28:19;;;;;;;1.92;1.75;;;36.80;33.40;;;;;;5045021;28;20214;-65
2022/09/24 09:30:59;;;;;;;1.30;1.20;;;37.80;31.90;;;;;;5048994;28;20213;-67
2022/09/24 09:33:47;;;;;;;1.30;1.20;;;38.40;30.20;;;;;;5050062;28;20202;-71
2022/09/24 09:36:31;;;;;;;1.98;1.25;;;39.20;29.40;;;;;;5049356;28;20209;-73
2022/09/24 09:39:05;;;;;;;2.22;2.00;;;40.40;28.50;;;;;;5052305;28;20206;-72
2022/09/24 09:41:40;;;;;;;2.88;2.00;;;41.50;27.70;;;;;;5054428;28;20477;-71
2022/09/24 09:44:15;;;;;;;6.90;3.20;;;42.60;27.10;;;;;;5052470;28;20708;-73
2022/09/24 09:46:49;;;;;;;3.95;2.47;;;43.60;26.30;;;;;;5054340;28;20201;-72
2022/09/24 09:49:17;;;;;;;5.00;2.22;;;44.40;25.50;;;;;;5052495;28;20689;-72
2022/09/24 09:51:47;;;;;;;1.52;1.42;;;45.20;25.00;;;;;;5049035;28;20397;-71
2022/09/24 09:54:15;;;;;;;2.30;1.60;;;45.90;24.50;;;;;;5053304;28;20213;-72
2022/09/24 09:56:45;;;;;;;1.63;1.52;;;45.40;23.70;;;;;;5048164;28;20212;-71
2022/09/24 09:59:19;;;;;;;3.65;2.10;;;44.00;24.10;;;;;;5052179;28;20292;-72
2022/09/24 10:01:48;;;;;;;1.73;1.63;;;42.40;24.40;;;;;;5050263;28;20204;-73
2022/09/24 10:04:28;;;;;;;3.55;2.58;;;40.90;25.20;;;;;;5055223;28;20658;-68
2022/09/24 10:07:05;;;;;;;2.15;1.70;;;39.60;26.10;;;;;;5048917;28;20617;-72
2022/09/24 10:09:33;;;;;;;3.05;1.88;;;39.10;26.60;;;;;;5056124;28;20217;-73
2022/09/24 10:12:07;;;;;;;2.78;1.77;;;39.20;26.50;;;;;;5051317;28;20662;-71
2022/09/24 10:14:34;;;;;;;3.63;2.17;;;39.30;26.50;;;;;;5049966;28;20264;-72
2022/09/24 10:17:04;;;;;;;2.45;1.85;;;39.20;26.30;;;;;;5052109;28;20212;-71
2022/09/24 10:19:33;;;;;;;2.60;1.88;;;38.80;26.40;;;;;;5043922;28;20558;-68
2022/09/24 10:22:08;;;;;;;4.28;1.88;;;38.50;26.70;;;;;;5044739;28;20237;-70
2022/09/24 10:24:40;;;;;;;2.40;1.90;;;38.30;26.80;;;;;;5053837;28;20545;-71
2022/09/24 10:27:11;;;;;;;3.63;2.00;;;38.10;26.80;;;;;;5050241;28;20594;-73
2022/09/24 10:32:25;;;;;;;3.75;2.40;;;36.70;27.80;;;;;;5048558;28;20197;-72
2022/09/24 10:34:56;;;;;;;4.45;1.75;;;36.10;27.30;;;;;;5047539;28;20213;-72
2022/09/24 10:37:23;;;;;;;2.05;1.73;;;35.00;28.10;;;;;;5045772;28;20229;-72
2022/09/24 10:39:59;;;;;;;6.30;2.67;;;33.40;28.80;;;;;;5051044;28;20198;-72
2022/09/24 10:42:28;;;;;;;1.90;1.55;;;32.40;30.70;;;;;;5055945;28;20209;-72
2022/09/24 10:44:58;;;;;;;3.25;1.80;;;31.70;30.50;;;;;;5054760;28;20202;-73
2022/09/24 10:47:27;;;;;;;2.17;1.88;;;30.90;32.00;;;;;;5054549;28;20263;-72
2022/09/24 10:50:26;;;;;;;2.45;1.80;;;30.60;32.10;;;;;;5043897;28;20253;-69
2022/09/24 10:52:57;;;;;;;4.22;2.40;;;29.90;32.80;;;;;;5052195;28;20201;-72
2022/09/24 10:55:42;;;;;;;5.97;3.40;;;29.20;33.80;;;;;;5044878;28;20209;-68
2022/09/24 10:58:26;;;;;;;3.20;2.38;;;28.70;34.90;;;;;;5053787;28;20213;-69
2022/09/24 11:01:05;;;;;;;3.97;2.08;;;28.50;34.90;;;;;;5053146;28;20217;-69
2022/09/24 11:03:54;;;;;;;5.82;2.00;;;28.30;35.70;;;;;;5048561;28;20624;-69
2022/09/24 11:06:35;;;;;;;3.17;1.85;;;28.40;36.30;;;;;;5049615;28;20757;-70
2022/09/24 11:09:13;;;;;;;2.28;1.63;;;29.20;36.00;;;;;;5050868;28;20256;-69
2022/09/24 11:11:55;;;;;;;2.85;2.13;;;30.60;34.30;;;;;;5054145;28;20198;-72
2022/09/24 11:14:43;;;;;;;1.83;1.73;;;31.60;33.90;;;;;;5052721;28;20237;-71
2022/09/24 11:17:26;;;;;;;3.13;1.77;;;32.00;31.80;;;;;;5050416;28;20203;-70
2022/09/24 11:20:16;;;;;;;1.17;1.08;;;32.00;31.60;;;;;;5047843;28;20225;-73
2022/09/24 11:22:56;;;;;;;5.20;1.45;;;32.00;31.30;;;;;;5047810;28;20234;-71
2022/09/24 11:25:33;;;;;;;1.10;1.00;;;32.40;31.00;;;;;;5046279;28;20309;-71
2022/09/24 11:28:22;;;;;;;1.65;1.27;;;32.80;29.80;;;;;;5041766;28;20584;-69
2022/09/24 11:31:04;;;;;;;3.42;1.70;;;33.70;30.00;;;;;;5047998;28;20566;-68
2022/09/24 11:33:45;;;;;;;1.00;0.90;;;35.00;29.30;;;;;;5049542;28;20248;-68
2022/09/24 11:36:23;;;;;;;1.23;1.10;;;36.40;27.80;;;;;;5050801;28;20233;-71
2022/09/24 11:39:04;;;;;;;1.05;0.80;;;37.60;26.80;;;;;;5054490;28;20198;-69
2022/09/24 11:41:43;;;;;;;4.10;1.55;;;38.70;25.70;;;;;;5053360;28;20225;-70
2022/09/24 11:44:44;;;;;;;1.92;0.80;;;38.00;25.30;;;;;;5049767;28;20655;-70
2022/09/24 11:47:25;;;;;;;2.90;1.10;;;37.30;26.50;;;;;;5050637;28;20221;-70
2022/09/24 11:50:06;;;;;;;1.23;0.90;;;36.50;26.00;;;;;;5047547;28;20233;-72
2022/09/24 11:52:37;;;;;;;1.02;0.93;;;35.70;27.20;;;;;;5050400;28;20212;-71
2022/09/24 11:55:14;;;;;;;1.15;1.05;;;34.40;27.20;;;;;;5054872;28;20209;-71
2022/09/24 11:57:46;;;;;;;4.20;1.80;;;33.10;28.90;;;;;;5049487;28;20198;-71
2022/09/24 12:00:16;;;;;;;2.17;1.40;;;32.20;30.20;;;;;;5054670;28;20198;-71
2022/09/24 12:02:47;;;;;;;1.50;1.20;;;32.90;30.00;;;;;;5054758;28;20841;-72
2022/09/24 12:05:22;;;;;;;1.88;1.33;;;33.60;29.70;;;;;;5053867;28;20197;-72
2022/09/24 12:07:53;;;;;;;0.80;0.80;;;34.50;29.30;;;;;;5053248;28;20225;-71
2022/09/24 12:10:34;;;;;;;1.05;0.88;;;35.50;28.50;;;;;;5054584;28;20226;-71
2022/09/24 12:13:11;;;;;;;1.90;1.27;;;36.20;27.90;;;;;;5049782;28;20208;-71
2022/09/24 12:15:46;;;;;;;1.58;1.02;;;36.40;27.40;;;;;;5051840;28;20691;-70
2022/09/24 12:18:17;;;;;;;1.80;1.00;;;36.00;27.50;;;;;;5054607;28;20300;-71
2022/09/24 12:20:50;;;;;;;1.48;1.05;;;35.20;27.40;;;;;;5053317;28;20206;-70
2022/09/24 12:23:20;;;;;;;1.05;0.98;;;34.60;27.80;;;;;;5054114;28;20240;-71
2022/09/24 12:25:52;;;;;;;2.65;1.30;;;34.00;27.80;;;;;;5052064;28;20202;-70
2022/09/24 12:34:04;;;;;;;1.55;0.98;;;32.10;29.20;;;;;;5054634;28;20566;-71
2022/09/24 12:36:43;;;;;;;0.95;0.90;;;31.20;29.70;;;;;;5054438;28;20680;-70
2022/09/24 12:39:13;;;;;;;1.58;0.90;;;30.50;29.80;;;;;;5054044;28;20194;-71
2022/09/24 12:41:42;;;;;;;0.98;0.88;;;30.10;30.60;;;;;;5053359;28;20571;-71
2022/09/24 12:44:17;;;;;;;3.08;1.10;;;29.80;30.90;;;;;;5053875;28;20634;-71
2022/09/24 12:46:50;;;;;;;1.48;1.00;;;29.50;31.10;;;;;;5052747;28;20198;-70
2022/09/24 12:49:28;;;;;;;1.27;1.00;;;29.10;31.50;;;;;;5051743;28;20221;-70
2022/09/24 12:51:57;;;;;;;1.42;1.00;;;28.50;32.10;;;;;;5053904;28;20209;-70
2022/09/24 12:54:29;;;;;;;2.63;1.30;;;27.90;32.80;;;;;;5053975;28;20209;-71
2022/09/24 12:57:08;;;;;;;1.50;1.40;;;27.40;33.30;;;;;;5053631;28;20205;-70
2022/09/24 12:59:47;;;;;;;1.35;1.20;;;27.00;34.10;;;;;;5053940;28;20425;-71
2022/09/24 13:02:18;;;;;;;1.30;1.13;;;26.30;35.00;;;;;;5044182;28;20216;-70
2022/09/24 13:04:51;;;;;;;1.65;1.25;;;26.00;35.70;;;;;;5050901;28;20197;-71
2022/09/24 13:07:29;;;;;;;1.80;1.20;;;25.50;37.00;;;;;;5045760;28;20206;-68
2022/09/24 13:09:56;;;;;;;1.15;1.05;;;25.00;37.20;;;;;;5049672;28;20221;-69
2022/09/24 13:12:31;;;;;;;1.63;1.05;;;24.70;37.80;;;;;;5051260;28;20217;-68
2022/09/24 13:15:01;;;;;;;1.80;1.30;;;24.50;38.20;;;;;;5051319;28;20434;-67